Delta Virtual Airport Information Service

Abu Dhabi International Airport

ICAO: OMAA Country: United Arab Emirates
Latitude: 24.433 Longitude: 54.6511
Latest Arrival : ETD867 (ZSPD-OMAA) Latest Departure : DALJUMP (OMAA-KJFK)


WX CaptureLIVE
Data provided by noaa.gov | Fetched at 12:36:27

METAR : OMAA 281700Z 33006KT 260V010 CAVOK 32/28 Q1005 BECMG 07006KT

TAF : OMAA 281100Z 2812/2918 33012KT 8000 NSC BECMG 2817/2819 07006KT PROB30 2901/2904 4000 HZ BECMG 2903/2905 14008KT BECMG 2909/2911 33008KT


Runway Data for OMAA
Data provided by openaviationdata.com

Runway ID Mag Var Hdg Length Elevation Surface ILS Freq ILS Id ILS Slope
13 1 126° 13463 ft 88 ft Asphalt 108.9 IAE 3
31 1 306° 13463 ft 88 ft Asphalt 109.3 IAW 3

Abu Dhabi International Airport, United Arab Emirates
Use only for reference purposes



Not for navigational purposes.